createdAt,value
2023-04-16T00:01:13.567Z,11.10
2023-04-16T00:04:01.136Z,10.60
2023-04-16T00:06:50.628Z,9.50
2023-04-16T00:09:37.844Z,10.60
2023-04-16T00:12:25.549Z,9.50
2023-04-16T00:15:12.807Z,10.20
2023-04-16T00:18:00.528Z,14.90
2023-04-16T00:20:48.581Z,12.60
2023-04-16T00:23:36.549Z,20.60
2023-04-16T00:26:23.763Z,17.20
2023-04-16T00:29:11.991Z,18.50
2023-04-16T00:31:59.240Z,17.10
2023-04-16T00:34:46.927Z,18.60
2023-04-16T00:37:34.221Z,21.30
2023-04-16T00:40:21.824Z,21.80
2023-04-16T00:43:09.304Z,21.00
2023-04-16T00:45:56.967Z,21.90
2023-04-16T00:48:45.640Z,18.80
2023-04-16T00:51:36.799Z,16.10
2023-04-16T00:54:25.465Z,13.80
2023-04-16T00:57:14.523Z,12.60
2023-04-16T01:00:09.991Z,10.70
2023-04-16T01:06:23.436Z,10.80
2023-04-16T01:09:13.050Z,10.70
2023-04-16T01:12:02.186Z,9.80
2023-04-16T01:14:51.351Z,9.70
2023-04-16T01:17:40.496Z,12.90
2023-04-16T01:20:29.651Z,17.10
2023-04-16T01:23:19.667Z,10.20
2023-04-16T01:26:08.605Z,11.50
2023-04-16T01:28:57.574Z,11.80
2023-04-16T01:31:46.964Z,11.20
2023-04-16T01:34:48.025Z,13.40
2023-04-16T01:37:37.234Z,14.40
2023-04-16T01:40:26.280Z,14.40
2023-04-16T01:43:15.820Z,10.10
2023-04-16T01:46:18.688Z,11.20
2023-04-16T01:49:08.000Z,9.60
2023-04-16T01:51:57.709Z,10.50
2023-04-16T01:54:46.780Z,8.70
2023-04-16T01:57:35.871Z,8.20
2023-04-16T02:00:25.214Z,8.50
2023-04-16T02:03:17.815Z,9.80
2023-04-16T02:06:06.761Z,10.30
2023-04-16T02:08:56.208Z,13.00
2023-04-16T02:11:45.123Z,10.00
2023-04-16T02:14:34.240Z,13.00
2023-04-16T02:17:23.743Z,11.90
2023-04-16T02:20:13.885Z,13.00
2023-04-16T02:23:15.044Z,12.20
2023-04-16T02:26:03.973Z,13.20
2023-04-16T02:28:52.932Z,11.70
2023-04-16T02:31:44.994Z,10.30
2023-04-16T02:34:34.751Z,11.10
2023-04-16T02:37:23.681Z,11.60
2023-04-16T02:40:12.476Z,12.60
2023-04-16T02:43:01.735Z,11.90
2023-04-16T02:45:50.421Z,11.70
2023-04-16T02:48:39.194Z,10.40
2023-04-16T02:51:27.805Z,12.90
2023-04-16T02:54:16.735Z,12.10
2023-04-16T02:57:06.224Z,12.30
2023-04-16T02:59:55.074Z,10.90
2023-04-16T03:02:44.115Z,10.70
2023-04-16T03:05:33.025Z,10.00
2023-04-16T03:08:21.757Z,9.70
2023-04-16T03:11:10.676Z,10.00
2023-04-16T03:13:59.582Z,9.00
2023-04-16T03:16:48.518Z,10.80
2023-04-16T03:19:37.308Z,9.40
2023-04-16T03:22:26.436Z,13.30
2023-04-16T03:25:15.105Z,10.80
2023-04-16T03:28:04.176Z,12.70
2023-04-16T03:30:53.727Z,15.80
2023-04-16T03:33:42.755Z,16.70
2023-04-16T03:36:32.603Z,12.20
2023-04-16T03:39:21.628Z,12.30
2023-04-16T03:42:10.368Z,11.00
2023-04-16T03:44:59.563Z,11.90
2023-04-16T03:47:52.612Z,13.60
2023-04-16T03:50:48.116Z,12.60
2023-04-16T03:53:37.773Z,12.60
2023-04-16T03:56:26.844Z,11.40
2023-04-16T03:59:15.899Z,11.50
2023-04-16T04:02:06.327Z,13.00
2023-04-16T04:04:55.334Z,10.30
2023-04-16T04:07:45.409Z,10.10
2023-04-16T04:10:36.228Z,11.10
2023-04-16T04:13:26.513Z,11.80
2023-04-16T04:16:15.511Z,11.90
2023-04-16T04:19:06.147Z,11.20
2023-04-16T04:21:55.434Z,10.20
2023-04-16T04:24:44.319Z,10.00
2023-04-16T04:27:33.080Z,11.00
2023-04-16T04:30:21.928Z,11.20
2023-04-16T04:33:11.128Z,13.70
2023-04-16T04:36:00.317Z,10.00
2023-04-16T04:38:49.702Z,10.70
2023-04-16T04:41:39.451Z,12.40
2023-04-16T04:44:28.251Z,11.60
2023-04-16T04:47:17.270Z,9.60
2023-04-16T04:50:06.629Z,9.60
2023-04-16T04:52:55.892Z,9.10
2023-04-16T04:55:44.821Z,10.40
2023-04-16T04:58:33.643Z,11.10
2023-04-16T05:01:22.322Z,10.60
2023-04-16T05:04:11.345Z,12.10
2023-04-16T05:07:00.166Z,13.60
2023-04-16T05:09:49.000Z,18.50
2023-04-16T05:12:37.689Z,15.70
2023-04-16T05:15:26.613Z,16.70
2023-04-16T05:18:15.776Z,12.80
2023-04-16T05:21:04.841Z,15.70
2023-04-16T05:23:54.382Z,13.10
2023-04-16T05:26:43.309Z,13.80
2023-04-16T05:29:32.031Z,13.80
2023-04-16T05:32:20.955Z,12.80
2023-04-16T05:35:09.998Z,13.70
2023-04-16T05:37:58.720Z,16.30
2023-04-16T05:40:47.483Z,14.20
2023-04-16T05:43:36.128Z,13.60
2023-04-16T05:46:24.918Z,14.30
2023-04-16T05:49:14.512Z,13.00
2023-04-16T05:52:06.335Z,11.90
2023-04-16T05:54:54.976Z,13.60
2023-04-16T05:57:43.648Z,15.20
2023-04-16T06:00:34.816Z,14.10
2023-04-16T06:03:23.491Z,14.10
2023-04-16T06:06:12.373Z,17.00
2023-04-16T06:09:01.000Z,15.60
2023-04-16T06:11:50.605Z,16.70
2023-04-16T06:14:39.247Z,11.90
2023-04-16T06:17:28.251Z,12.80
2023-04-16T06:20:17.012Z,12.60
2023-04-16T06:23:05.606Z,13.00
2023-04-16T06:25:54.575Z,14.50
2023-04-16T06:28:43.546Z,13.90
2023-04-16T06:31:32.315Z,16.70
2023-04-16T06:34:21.333Z,15.50
2023-04-16T06:37:10.820Z,12.70
2023-04-16T06:39:59.513Z,13.50
2023-04-16T06:42:48.463Z,14.10
2023-04-16T06:45:37.436Z,13.50
2023-04-16T06:48:26.376Z,12.50
2023-04-16T06:51:15.612Z,13.30
2023-04-16T06:54:04.292Z,14.40
2023-04-16T06:56:53.293Z,12.80
2023-04-16T06:59:42.209Z,14.10
2023-04-16T07:02:31.385Z,14.00
2023-04-16T07:05:20.110Z,15.10
2023-04-16T07:08:08.865Z,17.30
2023-04-16T07:10:57.567Z,14.50
2023-04-16T07:13:46.581Z,16.20
2023-04-16T07:16:35.381Z,20.80
2023-04-16T07:19:24.241Z,17.20
2023-04-16T07:22:13.383Z,12.50
2023-04-16T07:25:02.372Z,13.30
2023-04-16T07:27:51.926Z,12.10
2023-04-16T07:30:41.182Z,12.90
2023-04-16T07:33:30.030Z,13.90
2023-04-16T07:36:18.897Z,15.20
2023-04-16T07:39:07.874Z,14.20
2023-04-16T07:41:56.966Z,14.90
2023-04-16T07:44:45.696Z,14.30
2023-04-16T07:47:34.359Z,14.30
2023-04-16T07:50:23.161Z,14.70
2023-04-16T07:53:12.313Z,14.80
2023-04-16T07:56:01.053Z,14.20
2023-04-16T07:58:50.064Z,14.80
2023-04-16T08:01:38.966Z,14.40
2023-04-16T08:04:27.942Z,14.10
2023-04-16T08:07:17.140Z,14.80
2023-04-16T08:10:06.744Z,14.60
2023-04-16T08:12:55.791Z,15.80
2023-04-16T08:15:44.742Z,15.60
2023-04-16T08:18:33.352Z,17.10
2023-04-16T08:21:22.697Z,19.20
2023-04-16T08:24:11.971Z,14.80
2023-04-16T08:27:11.565Z,16.00
2023-04-16T08:30:08.333Z,16.20
2023-04-16T08:32:57.151Z,15.20
2023-04-16T08:35:45.859Z,15.30
2023-04-16T08:38:34.503Z,16.20
2023-04-16T08:41:24.921Z,17.70
2023-04-16T08:44:28.410Z,16.90
2023-04-16T08:47:17.742Z,16.20
2023-04-16T08:50:07.358Z,16.10
2023-04-16T08:53:00.775Z,16.00
2023-04-16T08:55:51.989Z,14.90
2023-04-16T08:58:41.894Z,15.40
2023-04-16T09:01:31.275Z,16.30
2023-04-16T09:04:21.322Z,15.80
2023-04-16T09:07:10.868Z,15.70
2023-04-16T09:10:00.623Z,16.60
2023-04-16T09:12:50.675Z,17.30
2023-04-16T09:15:39.810Z,16.00
2023-04-16T09:18:28.793Z,14.60
2023-04-16T09:21:17.442Z,15.40
2023-04-16T09:33:25.226Z,14.50
2023-04-16T09:36:14.216Z,12.80
2023-04-16T09:39:03.946Z,13.40
2023-04-16T09:41:54.785Z,13.50
2023-04-16T09:44:43.930Z,12.90
2023-04-16T09:47:41.500Z,15.00
2023-04-16T09:50:30.805Z,13.60
2023-04-16T09:53:30.819Z,13.80
2023-04-16T09:56:24.967Z,14.40
2023-04-16T09:59:18.132Z,12.50
2023-04-16T10:02:14.669Z,14.90
2023-04-16T10:05:05.150Z,14.70
2023-04-16T10:07:59.617Z,13.70
2023-04-16T10:10:48.680Z,12.90
2023-04-16T10:13:37.464Z,19.20
2023-04-16T10:16:26.834Z,16.00
2023-04-16T10:19:16.568Z,13.20
2023-04-16T10:22:05.676Z,12.00
2023-04-16T10:24:55.765Z,11.20
2023-04-16T10:27:44.807Z,11.50
2023-04-16T10:39:53.153Z,11.70
2023-04-16T10:42:42.035Z,10.70
2023-04-16T10:45:32.926Z,12.70
2023-04-16T10:51:34.645Z,13.70
2023-04-16T10:54:26.476Z,11.80
2023-04-16T10:57:17.891Z,13.50
2023-04-16T11:00:22.824Z,12.60
2023-04-16T11:03:12.083Z,12.80
2023-04-16T11:06:11.984Z,13.60
2023-04-16T11:09:03.057Z,10.60
2023-04-16T11:14:41.617Z,10.90
2023-04-16T11:17:39.173Z,11.10
2023-04-16T11:20:28.801Z,9.00
2023-04-16T11:23:18.151Z,11.20
2023-04-16T11:26:20.533Z,9.00
2023-04-16T11:29:18.555Z,9.10
2023-04-16T11:32:07.915Z,9.00
2023-04-16T11:34:56.909Z,9.60
2023-04-16T11:37:47.156Z,10.20
2023-04-16T11:40:36.507Z,9.80
2023-04-16T11:43:26.856Z,8.70
2023-04-16T11:46:26.893Z,10.90
2023-04-16T11:49:17.832Z,9.00
2023-04-16T11:52:08.076Z,9.50
2023-04-16T11:54:59.965Z,11.10
2023-04-16T11:57:49.184Z,8.90
2023-04-16T12:03:46.768Z,11.30
2023-04-16T12:06:36.263Z,11.00
2023-04-16T12:09:26.282Z,9.90
2023-04-16T12:12:32.316Z,11.20
2023-04-16T12:15:21.613Z,12.70
2023-04-16T12:18:10.564Z,12.00
2023-04-16T12:20:59.466Z,12.60
2023-04-16T12:23:53.865Z,10.60
2023-04-16T12:26:48.858Z,11.90
2023-04-16T12:29:38.882Z,11.70
2023-04-16T12:39:18.967Z,9.80
2023-04-16T12:42:09.960Z,14.20
2023-04-16T12:44:58.820Z,12.60
2023-04-16T12:47:47.818Z,10.40
2023-04-16T12:50:36.994Z,9.90
2023-04-16T12:53:26.220Z,9.90
2023-04-16T12:56:15.666Z,9.40
2023-04-16T12:59:05.030Z,9.20
2023-04-16T13:01:53.992Z,9.70
2023-04-16T13:04:43.056Z,9.40
2023-04-16T13:07:34.254Z,9.20
2023-04-16T13:13:12.611Z,8.50
2023-04-16T13:16:04.072Z,7.70
2023-04-16T13:18:53.425Z,7.80
2023-04-16T13:21:42.028Z,8.20
2023-04-16T13:24:30.888Z,8.40
2023-04-16T13:27:20.273Z,7.40
2023-04-16T13:30:09.758Z,7.20
2023-04-16T13:33:00.101Z,7.20
2023-04-16T13:35:49.700Z,8.60
2023-04-16T13:38:39.517Z,7.90
2023-04-16T13:41:28.240Z,7.50
2023-04-16T13:44:16.993Z,7.60
2023-04-16T13:47:06.088Z,7.80
2023-04-16T13:49:55.113Z,7.20
2023-04-16T13:52:44.092Z,6.60
2023-04-16T13:55:32.909Z,7.60
2023-04-16T13:58:21.991Z,7.00
2023-04-16T14:01:11.019Z,7.60
2023-04-16T14:04:06.446Z,7.70
2023-04-16T14:06:55.723Z,7.70
2023-04-16T14:09:44.607Z,7.60
2023-04-16T14:12:33.330Z,6.90
2023-04-16T14:15:22.325Z,8.20
2023-04-16T14:18:11.261Z,7.80
2023-04-16T14:21:02.093Z,7.50
2023-04-16T14:26:40.076Z,6.80
2023-04-16T14:29:29.079Z,6.20
2023-04-16T14:32:18.834Z,6.40
2023-04-16T14:35:08.355Z,6.50
2023-04-16T14:37:57.029Z,7.00
2023-04-16T14:40:45.942Z,7.60
2023-04-16T14:43:35.904Z,8.10
2023-04-16T14:46:25.076Z,7.50
2023-04-16T14:49:14.640Z,8.00
2023-04-16T14:52:05.631Z,7.50
2023-04-16T14:54:55.382Z,7.10
2023-04-16T14:57:44.298Z,6.90
2023-04-16T15:00:35.181Z,8.60
2023-04-16T15:06:13.881Z,6.20
2023-04-16T15:09:03.907Z,5.70
2023-04-16T15:11:53.058Z,6.10
2023-04-16T15:14:43.210Z,6.80
2023-04-16T15:17:32.240Z,7.00
2023-04-16T15:20:21.546Z,7.50
2023-04-16T15:23:11.170Z,5.40
2023-04-16T15:26:00.284Z,5.20
2023-04-16T15:28:49.414Z,6.00
2023-04-16T15:31:38.614Z,5.80
2023-04-16T15:34:28.128Z,5.70
2023-04-16T15:37:17.113Z,5.30
2023-04-16T15:40:09.595Z,5.90
2023-04-16T15:42:58.850Z,5.90
2023-04-16T15:45:47.941Z,5.00
2023-04-16T15:48:37.027Z,5.80
2023-04-16T15:51:26.823Z,8.10
2023-04-16T15:54:15.845Z,6.90
2023-04-16T15:57:04.933Z,6.50
2023-04-16T16:00:06.337Z,6.50
2023-04-16T16:02:57.391Z,7.40
2023-04-16T16:05:48.015Z,6.00
2023-04-16T16:08:38.584Z,8.00
2023-04-16T16:11:27.621Z,6.70
2023-04-16T16:14:18.665Z,6.10
2023-04-16T16:17:07.660Z,6.50
2023-04-16T16:19:57.856Z,6.80
2023-04-16T16:22:48.328Z,6.90
2023-04-16T16:25:37.248Z,8.10
2023-04-16T16:28:26.216Z,8.80
2023-04-16T16:31:14.872Z,8.20
2023-04-16T16:34:03.447Z,10.00
2023-04-16T16:36:52.585Z,11.60
2023-04-16T16:39:41.430Z,9.30
2023-04-16T16:42:30.084Z,9.10
2023-04-16T16:45:19.206Z,9.90
2023-04-16T16:48:08.335Z,11.80
2023-04-16T16:50:57.366Z,9.60
2023-04-16T16:53:46.660Z,10.70
2023-04-16T16:56:35.336Z,11.60
2023-04-16T16:59:24.082Z,10.10
2023-04-16T17:02:14.570Z,8.60
2023-04-16T17:05:06.122Z,9.70
2023-04-16T17:07:54.851Z,11.90
2023-04-16T17:10:44.009Z,13.60
2023-04-16T17:13:33.664Z,9.90
2023-04-16T17:16:25.480Z,9.00
2023-04-16T17:19:15.413Z,9.10
2023-04-16T17:22:05.864Z,8.20
2023-04-16T17:24:55.626Z,8.90
2023-04-16T17:27:44.613Z,8.70
2023-04-16T17:30:33.612Z,7.90
2023-04-16T17:33:22.936Z,9.90
2023-04-16T17:36:11.804Z,9.50
2023-04-16T17:39:00.647Z,9.10
2023-04-16T17:41:54.240Z,9.60
2023-04-16T17:44:43.313Z,8.60
2023-04-16T17:47:35.367Z,8.00
2023-04-16T17:50:24.516Z,7.30
2023-04-16T17:53:13.333Z,7.30
2023-04-16T17:56:02.592Z,7.90
2023-04-16T17:58:51.410Z,7.80
2023-04-16T18:01:41.053Z,8.30
2023-04-16T18:04:30.405Z,9.20
2023-04-16T18:07:19.622Z,8.00
2023-04-16T18:10:09.060Z,7.10
2023-04-16T18:12:57.739Z,7.20
2023-04-16T18:15:47.008Z,7.70
2023-04-16T18:18:35.718Z,8.40
2023-04-16T18:21:24.673Z,9.10
2023-04-16T18:24:14.025Z,8.90
2023-04-16T18:27:03.850Z,9.60
2023-04-16T18:29:54.785Z,8.70
2023-04-16T18:33:04.198Z,21.30
2023-04-16T18:35:53.720Z,9.70
2023-04-16T18:38:56.944Z,8.20
2023-04-16T18:41:49.054Z,10.30
2023-04-16T18:44:37.789Z,15.00
2023-04-16T18:47:27.256Z,13.90
2023-04-16T19:04:23.512Z,9.50
2023-04-16T19:07:11.336Z,11.00
2023-04-16T19:10:03.091Z,9.70
2023-04-16T19:12:50.776Z,11.90
2023-04-16T19:15:38.649Z,11.80
2023-04-16T19:18:26.770Z,12.50
2023-04-16T19:21:14.317Z,10.80
2023-04-16T19:24:01.821Z,12.30
2023-04-16T19:26:50.153Z,21.70
2023-04-16T19:29:39.775Z,16.30
2023-04-16T19:32:27.835Z,24.70
2023-04-16T19:35:15.556Z,15.20
2023-04-16T19:38:03.313Z,12.90
2023-04-16T19:40:50.969Z,17.40
2023-04-16T19:43:38.810Z,14.90
2023-04-16T19:46:26.508Z,19.30
2023-04-16T19:49:16.604Z,16.30
2023-04-16T19:52:04.246Z,13.30
2023-04-16T19:54:52.123Z,13.70
2023-04-16T19:57:39.874Z,13.70
2023-04-16T20:00:27.702Z,14.50
2023-04-16T20:03:15.602Z,20.50
2023-04-16T20:06:04.910Z,17.10
2023-04-16T20:08:53.297Z,34.30
2023-04-16T20:11:40.684Z,18.80
2023-04-16T20:14:27.895Z,15.00
2023-04-16T20:17:17.239Z,17.40
2023-04-16T20:20:09.468Z,14.70
2023-04-16T20:22:56.709Z,15.80
2023-04-16T20:25:45.983Z,14.80
2023-04-16T20:28:33.253Z,15.00
2023-04-16T20:31:20.489Z,17.60
2023-04-16T20:34:08.297Z,13.10
2023-04-16T20:36:57.348Z,16.30
2023-04-16T20:39:46.220Z,21.10
2023-04-16T20:42:33.872Z,15.90
2023-04-16T20:45:21.571Z,14.80
2023-04-16T20:48:09.083Z,13.90
2023-04-16T20:51:00.611Z,13.20
2023-04-16T20:53:49.472Z,14.90
2023-04-16T20:56:36.649Z,16.10
2023-04-16T20:59:24.779Z,21.80
2023-04-16T21:02:12.174Z,20.10
2023-04-16T21:04:59.804Z,19.70
2023-04-16T21:07:47.386Z,18.30
2023-04-16T21:10:34.999Z,16.40
2023-04-16T21:13:22.561Z,19.20
2023-04-16T21:16:11.738Z,20.70
2023-04-16T21:18:59.321Z,16.20
2023-04-16T21:21:46.771Z,16.20
2023-04-16T21:24:34.463Z,16.90
2023-04-16T21:27:21.569Z,17.50
2023-04-16T21:30:09.206Z,16.70
2023-04-16T21:32:56.571Z,16.50
2023-04-16T21:35:43.833Z,18.00
2023-04-16T21:38:30.966Z,17.90
2023-04-16T21:41:18.411Z,17.80
2023-04-16T21:44:05.547Z,17.90
2023-04-16T21:46:52.857Z,21.30
2023-04-16T21:49:41.716Z,18.10
2023-04-16T21:52:28.953Z,18.00
2023-04-16T21:55:16.356Z,23.90
2023-04-16T21:58:03.637Z,18.40
2023-04-16T22:00:51.627Z,20.30
2023-04-16T22:03:39.597Z,22.70
2023-04-16T22:06:27.316Z,16.70
2023-04-16T22:09:14.901Z,21.90
2023-04-16T22:12:02.334Z,18.00
2023-04-16T22:17:43.407Z,18.10
2023-04-16T22:20:38.147Z,19.90
2023-04-16T22:23:25.617Z,18.80
2023-04-16T22:26:13.084Z,20.00
2023-04-16T22:29:01.381Z,16.20
2023-04-16T22:31:48.825Z,18.00
2023-04-16T22:34:36.212Z,18.80
2023-04-16T22:37:23.650Z,19.10
2023-04-16T22:40:11.384Z,19.10
2023-04-16T22:42:58.978Z,19.30
2023-04-16T22:45:46.982Z,17.60
2023-04-16T22:48:37.406Z,19.00
2023-04-16T22:51:24.916Z,16.70
2023-04-16T22:54:13.776Z,18.30
2023-04-16T22:57:01.406Z,18.90
2023-04-16T22:59:48.757Z,19.60
2023-04-16T23:02:36.258Z,18.10
2023-04-16T23:05:23.755Z,24.00
2023-04-16T23:08:11.147Z,18.60
2023-04-16T23:10:58.499Z,20.10
2023-04-16T23:13:45.838Z,19.40
2023-04-16T23:16:33.370Z,25.70
2023-04-16T23:19:20.652Z,21.30
2023-04-16T23:22:08.250Z,20.90
2023-04-16T23:24:55.580Z,18.70
2023-04-16T23:27:42.839Z,18.60
2023-04-16T23:30:30.212Z,15.80
2023-04-16T23:33:17.697Z,16.10
2023-04-16T23:36:05.540Z,17.50
2023-04-16T23:38:53.026Z,16.50
2023-04-16T23:41:40.357Z,18.00
2023-04-16T23:44:27.574Z,16.20
2023-04-16T23:47:14.877Z,15.80
2023-04-16T23:50:02.535Z,17.60
2023-04-16T23:52:49.846Z,18.40
2023-04-16T23:55:37.594Z,16.10
2023-04-16T23:58:26.153Z,19.00
